Time;durP1;ratioP1;P1;durP2;ratioP2;P2;SDS_P1;SDS_P2;PMS_P1;PMS_P2;Temp;Humidity;BMP_temperature;BMP_pressure;BME280_temperature;BME280_humidity;BME280_pressure;Samples;Min_cycle;Max_cycle;Signal;HPM_P1;HPM_P2
2023/06/03 00:01:17;;;;;;;13.97;5.80;;;;;;;13.00;100.00;102163.56;5038529;28;20548;-75
2023/06/03 00:03:44;;;;;;;12.07;5.53;;;;;;;12.97;100.00;102169.44;5035418;28;20056;-75
2023/06/03 00:06:10;;;;;;;8.30;5.45;;;;;;;12.98;100.00;102165.63;5033563;28;20029;-75
2023/06/03 00:08:35;;;;;;;17.02;6.18;;;;;;;13.01;100.00;102171.63;5027678;28;20457;-75
2023/06/03 00:11:01;;;;;;;15.00;6.10;;;;;;;12.94;100.00;102172.50;5031609;28;20056;-75
2023/06/03 00:13:26;;;;;;;15.80;5.40;;;;;;;12.92;100.00;102163.56;5040791;28;20570;-74
2023/06/03 00:15:51;;;;;;;16.03;6.20;;;;;;;12.88;100.00;102168.59;5036778;28;20056;-74
2023/06/03 00:18:17;;;;;;;14.50;5.77;;;;;;;12.90;100.00;102168.38;5041346;28;20111;-72
2023/06/03 00:20:47;;;;;;;13.27;5.90;;;;;;;12.89;100.00;102169.44;5039881;28;20040;-72
2023/06/03 00:23:13;;;;;;;11.93;5.43;;;;;;;12.82;100.00;102169.28;5036424;28;20476;-72
2023/06/03 00:25:38;;;;;;;14.52;5.78;;;;;;;12.78;100.00;102176.19;5038768;28;20077;-72
2023/06/03 00:28:04;;;;;;;13.90;5.77;;;;;;;12.77;100.00;102170.88;5032415;28;20029;-72
2023/06/03 00:30:31;;;;;;;10.33;5.33;;;;;;;12.78;100.00;102167.94;5031194;28;20056;-72
2023/06/03 00:32:56;;;;;;;12.32;5.22;;;;;;;12.75;100.00;102161.94;5035757;28;20416;-72
2023/06/03 00:35:22;;;;;;;10.97;5.87;;;;;;;12.73;100.00;102170.38;5036943;28;20087;-72
2023/06/03 00:37:47;;;;;;;7.10;5.47;;;;;;;12.71;100.00;102171.59;5041909;28;20033;-72
2023/06/03 00:40:13;;;;;;;15.00;6.27;;;;;;;12.69;100.00;102166.25;5036719;28;20029;-72
2023/06/03 00:42:38;;;;;;;11.77;5.50;;;;;;;12.71;100.00;102177.09;5031709;28;20034;-72
2023/06/03 00:45:04;;;;;;;18.60;5.47;;;;;;;12.68;100.00;102177.44;5030481;28;20128;-72
2023/06/03 00:47:29;;;;;;;11.77;5.37;;;;;;;12.61;100.00;102171.81;5032011;28;20029;-72
2023/06/03 00:49:56;;;;;;;10.30;5.80;;;;;;;12.62;100.00;102167.16;5039303;28;20113;-72
2023/06/03 00:52:23;;;;;;;8.50;4.78;;;;;;;12.60;100.00;102171.97;5038549;28;20052;-72
2023/06/03 00:54:50;;;;;;;12.85;5.63;;;;;;;12.55;100.00;102168.91;5038311;28;20037;-72
2023/06/03 00:57:16;;;;;;;14.15;5.78;;;;;;;12.51;100.00;102168.41;5035003;28;20025;-72
2023/06/03 00:59:42;;;;;;;9.63;4.73;;;;;;;12.53;100.00;102173.72;5033595;28;20144;-72
2023/06/03 01:02:08;;;;;;;13.35;5.18;;;;;;;12.49;100.00;102172.38;5033779;28;20033;-74
2023/06/03 01:04:34;;;;;;;13.60;5.57;;;;;;;12.47;100.00;102171.66;5034807;28;20199;-73
2023/06/03 01:07:37;;;;;;;15.40;5.47;;;;;;;12.45;100.00;102177.38;5035042;28;20033;-74
2023/06/03 01:10:21;;;;;;;13.80;5.32;;;;;;;12.41;100.00;102169.63;5033547;28;20435;-73
2023/06/03 01:13:08;;;;;;;18.35;5.30;;;;;;;12.40;100.00;102167.94;5030232;28;20392;-75
2023/06/03 01:15:35;;;;;;;13.30;5.87;;;;;;;12.38;100.00;102168.09;5037712;28;20060;-74
2023/06/03 01:18:05;;;;;;;12.52;5.85;;;;;;;12.36;100.00;102167.44;5035845;28;20377;-74
2023/06/03 01:20:32;;;;;;;9.75;5.03;;;;;;;12.35;100.00;102164.84;5042149;28;20027;-74
2023/06/03 01:23:03;;;;;;;;;;;;;;;12.33;100.00;102155.94;5036806;28;20021;-75
2023/06/03 01:25:28;;;;;;;11.25;5.82;;;;;;;12.30;100.00;102161.78;5032976;28;20019;-73
2023/06/03 01:27:57;;;;;;;12.83;5.10;;;;;;;12.27;100.00;102164.88;5043141;28;20112;-73
2023/06/03 01:30:23;;;;;;;10.10;4.80;;;;;;;12.25;100.00;102170.56;5034622;28;20731;-73
2023/06/03 01:32:49;;;;;;;10.87;5.33;;;;;;;12.20;100.00;102172.09;5037009;28;20112;-73
2023/06/03 01:35:16;;;;;;;12.07;5.65;;;;;;;12.19;100.00;102167.63;5040997;28;20033;-73
2023/06/03 01:37:41;;;;;;;;;;;;;;;12.21;100.00;102162.81;5038821;28;20057;-73
2023/06/03 01:40:08;;;;;;;9.30;5.28;;;;;;;12.25;100.00;102165.06;5037875;28;19958;-73
2023/06/03 01:42:34;;;;;;;15.10;5.45;;;;;;;12.17;100.00;102151.31;5037235;28;20497;-73
2023/06/03 01:45:03;;;;;;;8.68;5.47;;;;;;;12.16;100.00;102154.28;5027836;28;20358;-73
2023/06/03 01:47:28;;;;;;;8.35;5.70;;;;;;;12.06;100.00;102153.59;5029421;28;20091;-73
2023/06/03 01:49:54;;;;;;;11.03;6.63;;;;;;;12.10;100.00;102171.44;5029891;28;20497;-73
2023/06/03 01:52:19;;;;;;;9.87;5.50;;;;;;;12.10;100.00;102160.44;5036902;28;20091;-73
2023/06/03 01:54:45;;;;;;;9.03;5.77;;;;;;;12.10;100.00;102161.31;5037135;28;20498;-73
2023/06/03 01:57:10;;;;;;;9.63;5.33;;;;;;;12.11;100.00;102167.69;5032528;28;20030;-71
2023/06/03 01:59:36;;;;;;;14.50;5.50;;;;;;;12.06;100.00;102170.09;5032408;28;20034;-71
2023/06/03 02:02:02;;;;;;;9.40;5.90;;;;;;;12.06;100.00;102164.59;5031031;28;20029;-71
2023/06/03 02:04:28;;;;;;;6.63;5.10;;;;;;;12.06;100.00;102165.44;5036386;28;20029;-71
2023/06/03 02:07:00;;;;;;;14.40;5.50;;;;;;;12.06;100.00;102167.34;5028993;28;20025;-71
2023/06/03 02:09:28;;;;;;;15.63;5.72;;;;;;;12.04;100.00;102158.41;5031859;28;20065;-71
2023/06/03 02:11:57;;;;;;;9.82;5.18;;;;;;;12.02;100.00;102153.06;5040966;28;20059;-71
2023/06/03 02:14:24;;;;;;;10.45;6.30;;;;;;;11.99;100.00;102147.94;5026638;28;20492;-71
2023/06/03 02:16:50;;;;;;;16.80;5.75;;;;;;;12.02;100.00;102149.50;5066339;28;20032;-70
2023/06/03 02:19:19;;;;;;;14.87;6.10;;;;;;;12.07;100.00;102155.31;5033250;28;20443;-71
2023/06/03 02:21:46;;;;;;;9.45;6.07;;;;;;;12.01;100.00;102150.53;5030407;28;20572;-71
2023/06/03 02:24:16;;;;;;;12.80;6.50;;;;;;;11.97;100.00;102155.53;5035837;28;20029;-71
2023/06/03 02:26:52;;;;;;;13.15;5.63;;;;;;;11.96;100.00;102142.78;5031572;28;20025;-71
2023/06/03 02:29:27;;;;;;;10.60;6.13;;;;;;;11.98;100.00;102148.13;5036004;28;20033;-71
2023/06/03 02:31:54;;;;;;;11.55;5.90;;;;;;;11.92;100.00;102135.09;5030319;28;20082;-71
2023/06/03 02:34:20;;;;;;;24.27;6.45;;;;;;;11.92;100.00;102135.97;5034521;28;20052;-72
2023/06/03 02:36:46;;;;;;;13.10;6.18;;;;;;;11.88;100.00;102151.06;5037693;28;20588;-76
2023/06/03 02:39:13;;;;;;;11.53;5.70;;;;;;;11.87;100.00;102143.00;5031041;28;20079;-72
2023/06/03 02:41:41;;;;;;;10.18;5.93;;;;;;;11.87;100.00;102143.00;5038640;28;20025;-74
2023/06/03 02:44:07;;;;;;;12.32;6.25;;;;;;;11.86;100.00;102149.53;5034671;28;20065;-72
2023/06/03 02:46:32;;;;;;;9.93;5.33;;;;;;;11.84;100.00;102151.59;5038629;28;20053;-72
2023/06/03 02:48:58;;;;;;;12.13;6.37;;;;;;;11.80;100.00;102145.56;5034133;28;20571;-71
2023/06/03 02:51:24;;;;;;;13.27;5.97;;;;;;;11.85;100.00;102151.41;5036965;28;20510;-72
2023/06/03 02:53:50;;;;;;;12.13;5.83;;;;;;;11.78;100.00;102150.38;5027156;28;20374;-72
2023/06/03 02:56:15;;;;;;;12.73;6.80;;;;;;;11.79;100.00;102151.25;5032731;28;20058;-72
2023/06/03 02:58:41;;;;;;;13.40;5.70;;;;;;;11.78;100.00;102149.50;5032121;28;20037;-72
2023/06/03 03:01:06;;;;;;;15.87;6.13;;;;;;;11.80;100.00;102158.44;5035936;28;20029;-73
2023/06/03 03:03:35;;;;;;;14.63;5.90;;;;;;;11.76;100.00;102152.47;5033813;28;20374;-72
2023/06/03 03:06:04;;;;;;;12.70;5.97;;;;;;;11.69;100.00;102154.16;5031879;28;20027;-72
2023/06/03 03:08:31;;;;;;;11.55;6.50;;;;;;;11.72;100.00;102144.72;5035838;28;20032;-72
2023/06/03 03:10:56;;;;;;;;;;;;;;;11.76;100.00;102152.47;5030841;28;20040;-72
2023/06/03 03:13:21;;;;;;;11.05;5.57;;;;;;;11.74;100.00;102159.16;5040368;28;19912;-72
2023/06/03 03:15:47;;;;;;;14.63;6.47;;;;;;;11.65;100.00;102149.19;5041400;28;20028;-72
2023/06/03 03:18:12;;;;;;;12.00;6.90;;;;;;;11.65;100.00;102157.44;5040557;28;20048;-72
2023/06/03 03:20:38;;;;;;;11.07;6.37;;;;;;;11.65;100.00;102157.44;5041240;28;20021;-72
2023/06/03 03:23:04;;;;;;;15.67;6.10;;;;;;;11.67;100.00;102153.47;5043338;28;20078;-71
2023/06/03 03:25:30;;;;;;;12.52;5.63;;;;;;;11.65;100.00;102154.69;5041269;28;20036;-73
2023/06/03 03:27:58;;;;;;;16.17;6.30;;;;;;;11.63;100.00;102157.59;5039480;28;20049;-71
2023/06/03 03:30:23;;;;;;;14.95;6.55;;;;;;;11.65;100.00;102161.03;5040573;28;20432;-71
2023/06/03 03:32:48;;;;;;;14.93;5.67;;;;;;;11.65;100.00;102168.41;5040272;28;20021;-73
2023/06/03 03:35:20;;;;;;;18.37;6.13;;;;;;;11.65;100.00;102157.44;5040480;28;20085;-73
2023/06/03 03:37:45;;;;;;;12.75;6.47;;;;;;;11.65;100.00;102158.31;5036125;28;20032;-71
2023/06/03 03:40:18;;;;;;;12.63;6.37;;;;;;;11.59;100.00;102161.69;5037071;28;20104;-73
2023/06/03 03:42:52;;;;;;;10.30;6.13;;;;;;;11.61;100.00;102158.78;5030779;28;20029;-72
2023/06/03 03:45:20;;;;;;;14.75;6.90;;;;;;;11.54;100.00;102157.75;5040198;28;20496;-73
2023/06/03 03:48:05;;;;;;;12.98;6.43;;;;;;;11.54;100.00;102160.47;5038026;28;20123;-73
2023/06/03 03:50:39;;;;;;;13.18;7.75;;;;;;;11.58;100.00;102157.22;5037418;28;20123;-72
2023/06/03 03:53:08;;;;;;;13.25;6.55;;;;;;;11.55;100.00;102162.19;5036305;28;20025;-72
2023/06/03 03:55:40;;;;;;;12.45;6.43;;;;;;;11.56;100.00;102159.28;5031276;28;20041;-72
2023/06/03 03:58:15;;;;;;;16.00;6.72;;;;;;;11.54;100.00;102158.56;5028779;28;20029;-72
2023/06/03 04:00:43;;;;;;;14.85;6.07;;;;;;;11.52;100.00;102157.06;5032122;28;20421;-73
2023/06/03 04:03:11;;;;;;;11.88;6.18;;;;;;;11.52;100.00;102154.31;5038044;28;20157;-72
2023/06/03 04:05:36;;;;;;;13.13;7.10;;;;;;;11.62;100.00;102157.75;5037255;28;20049;-72
2023/06/03 04:08:03;;;;;;;13.00;6.27;;;;;;;11.60;100.00;102159.81;5035244;28;20404;-73
2023/06/03 04:10:29;;;;;;;9.73;6.47;;;;;;;11.59;100.00;102160.88;5033394;28;20037;-73
2023/06/03 04:12:54;;;;;;;12.10;6.10;;;;;;;11.60;100.00;102159.81;5036090;28;20063;-72
2023/06/03 04:15:24;;;;;;;15.67;6.50;;;;;;;11.67;100.00;102163.59;5035453;28;20373;-73
2023/06/03 04:17:50;;;;;;;12.23;7.38;;;;;;;11.66;100.00;102157.25;5042517;28;20499;-75
2023/06/03 04:20:44;;;;;;;11.23;6.13;;;;;;;11.68;99.53;102168.06;5033024;28;20013;-75
2023/06/03 04:23:15;;;;;;;15.65;7.10;;;;;;;11.71;99.32;102160.34;5037642;28;20099;-74
2023/06/03 04:25:43;;;;;;;13.75;6.45;;;;;;;11.74;98.90;102161.91;5037965;28;20544;-75
2023/06/03 04:28:11;;;;;;;16.67;7.05;;;;;;;11.71;98.94;102170.47;5033693;28;20028;-75
2023/06/03 04:30:37;;;;;;;18.67;6.57;;;;;;;11.75;98.98;102161.69;5041324;28;20037;-75
2023/06/03 04:33:02;;;;;;;14.20;6.50;;;;;;;11.80;99.09;102161.19;5018826;28;20037;-74
2023/06/03 04:35:28;;;;;;;8.03;5.63;;;;;;;11.80;98.42;102169.44;5037833;28;20106;-74
2023/06/03 04:37:53;;;;;;;14.17;6.40;;;;;;;11.84;97.75;102166.16;5038453;28;20416;-75
2023/06/03 04:40:19;;;;;;;15.27;6.30;;;;;;;11.95;97.39;102165.81;5039739;28;20033;-74
2023/06/03 04:42:46;;;;;;;11.13;5.70;;;;;;;11.94;96.84;102161.34;5039611;28;20024;-75
2023/06/03 04:45:12;;;;;;;14.20;5.85;;;;;;;12.00;97.19;102170.78;5039661;28;20488;-74
2023/06/03 04:47:41;;;;;;;13.50;6.13;;;;;;;12.02;96.61;102166.81;5029534;28;20060;-72
2023/06/03 04:50:09;;;;;;;11.85;5.28;;;;;;;12.06;95.98;102164.59;5028202;28;20504;-74
2023/06/03 04:52:35;;;;;;;12.52;5.70;;;;;;;12.11;95.53;102173.16;5039438;28;20033;-74
2023/06/03 04:55:02;;;;;;;9.83;5.40;;;;;;;12.16;95.43;102170.75;5036307;28;20026;-74
2023/06/03 04:57:27;;;;;;;8.15;6.30;;;;;;;12.21;94.60;102171.06;5037436;28;20102;-75
2023/06/03 04:59:52;;;;;;;21.77;5.57;;;;;;;12.26;94.42;102171.38;5036950;28;20029;-74
2023/06/03 05:02:20;;;;;;;7.83;5.40;;;;;;;12.34;93.19;102165.88;5032647;28;20093;-74
2023/06/03 05:04:46;;;;;;;8.68;4.97;;;;;;;12.41;93.17;102178.75;5025743;28;20033;-74
2023/06/03 05:07:13;;;;;;;13.10;5.07;;;;;;;12.51;92.75;102184.03;5036395;28;20025;-74
2023/06/03 05:09:38;;;;;;;;;;;;;;;12.62;91.58;102172.66;5032506;28;20072;-74
2023/06/03 05:12:04;;;;;;;11.10;5.93;;;;;;;12.77;91.07;102184.63;5032163;28;19955;-74
2023/06/03 05:14:30;;;;;;;10.23;5.80;;;;;;;13.38;88.42;102181.88;5034527;28;20068;-74
2023/06/03 05:16:56;;;;;;;7.97;5.10;;;;;;;14.49;84.07;102184.63;5036879;28;20025;-74
2023/06/03 05:19:21;;;;;;;13.80;5.30;;;;;;;15.31;80.66;102181.47;5042231;28;20025;-73
2023/06/03 05:21:46;;;;;;;8.43;4.50;;;;;;;16.11;75.93;102180.16;5040827;28;20045;-73
2023/06/03 05:24:12;;;;;;;8.83;4.23;;;;;;;16.97;72.07;102177.75;5042605;28;20040;-74
2023/06/03 05:26:37;;;;;;;7.43;4.53;;;;;;;17.16;69.46;102188.88;5039293;28;20065;-74
2023/06/03 05:29:02;;;;;;;8.03;4.47;;;;;;;17.94;66.50;102189.06;5035632;28;20357;-75
2023/06/03 05:31:28;;;;;;;14.70;4.20;;;;;;;18.46;64.80;102182.69;5034100;28;20361;-74
2023/06/03 05:33:53;;;;;;;10.67;4.10;;;;;;;18.90;63.25;102193.88;5035168;28;20033;-72
2023/06/03 05:36:19;;;;;;;10.33;3.47;;;;;;;19.12;63.37;102186.94;5041340;28;20067;-72
2023/06/03 05:38:45;;;;;;;11.30;4.00;;;;;;;19.05;61.22;102202.81;5035510;28;20453;-72
2023/06/03 05:41:10;;;;;;;6.90;3.93;;;;;;;19.15;59.52;102194.84;5036076;28;20175;-72
2023/06/03 05:43:36;;;;;;;8.53;4.00;;;;;;;19.58;60.21;102201.50;5034119;28;20501;-72
2023/06/03 05:46:01;;;;;;;8.90;4.37;;;;;;;19.37;58.09;102201.81;5031437;28;20108;-71
2023/06/03 05:48:26;;;;;;;9.67;4.10;;;;;;;20.11;59.24;102208.41;5033048;28;20126;-72
2023/06/03 05:50:53;;;;;;;8.77;4.10;;;;;;;20.38;57.58;102201.53;5040489;28;20040;-72
2023/06/03 05:53:25;;;;;;;6.75;3.33;;;;;;;20.56;55.58;102207.13;5035813;28;20043;-71
2023/06/03 05:55:51;;;;;;;4.47;3.30;;;;;;;20.31;55.66;102206.28;5036011;28;20025;-72
2023/06/03 05:58:17;;;;;;;8.57;3.50;;;;;;;20.34;55.75;102203.06;5034642;28;20407;-72
2023/06/03 06:00:43;;;;;;;7.25;3.72;;;;;;;20.55;53.45;102211.00;5037742;28;20029;-72
2023/06/03 06:03:08;;;;;;;8.17;3.30;;;;;;;21.04;54.17;102208.13;5028142;28;20029;-72
2023/06/03 06:05:33;;;;;;;10.80;3.77;;;;;;;21.46;51.02;102209.94;5033208;28;20512;-72
2023/06/03 06:07:59;;;;;;;10.03;3.67;;;;;;;21.25;50.60;102221.59;5031930;28;20385;-72
2023/06/03 06:10:24;;;;;;;6.43;3.67;;;;;;;21.76;50.93;102213.63;5035120;28;20030;-72
2023/06/03 06:12:50;;;;;;;8.43;3.47;;;;;;;21.51;51.11;102210.09;5039560;28;20032;-75
2023/06/03 06:15:15;;;;;;;6.33;3.20;;;;;;;21.70;50.26;102211.75;5041575;28;20040;-75
2023/06/03 06:17:43;;;;;;;4.73;3.33;;;;;;;21.13;52.79;102207.56;5036631;28;20032;-74
2023/06/03 06:20:10;;;;;;;6.68;3.15;;;;;;;22.10;51.24;102212.84;5038696;28;20257;-74
2023/06/03 06:22:36;;;;;;;10.27;3.75;;;;;;;22.23;49.01;102209.81;5033890;28;20370;-74
2023/06/03 06:25:03;;;;;;;14.18;3.83;;;;;;;22.15;47.65;102221.38;5037214;28;20142;-74
2023/06/03 06:27:29;;;;;;;5.43;3.30;;;;;;;22.49;45.21;102215.00;5033967;28;20033;-74
2023/06/03 06:29:55;;;;;;;;;;;;;;;22.01;48.49;102209.56;5033628;28;20033;-71
2023/06/03 06:32:25;;;;;;;5.05;2.80;;;;;;;22.05;48.16;102224.75;5031723;28;20605;-73
2023/06/03 06:34:51;;;;;;;3.97;2.90;;;;;;;22.29;46.44;102218.09;5027116;28;20116;-74
2023/06/03 06:37:20;;;;;;;;;;;;;;;22.31;47.61;102221.50;5024275;28;20112;-74
2023/06/03 06:39:48;;;;;;;9.35;2.97;;;;;;;22.67;47.59;102218.50;5029159;28;19917;-71
2023/06/03 06:42:26;;;;;;;4.28;2.80;;;;;;;23.03;45.98;102218.25;5030339;28;20052;-70
2023/06/03 06:44:52;;;;;;;5.28;2.50;;;;;;;23.02;46.38;102221.28;5028684;28;20020;-70
2023/06/03 06:47:23;;;;;;;7.10;2.65;;;;;;;22.70;44.63;102211.59;5030228;28;20032;-70
2023/06/03 06:49:49;;;;;;;8.40;3.00;;;;;;;22.48;44.84;102221.69;5025257;28;20049;-71
2023/06/03 06:52:15;;;;;;;7.68;3.00;;;;;;;22.73;43.14;102213.91;5054586;28;20060;-71
2023/06/03 06:54:41;;;;;;;4.20;2.65;;;;;;;22.08;45.76;102217.84;5031183;28;20029;-73
2023/06/03 06:57:07;;;;;;;;;;;;;;;22.56;44.43;102219.38;5029284;28;20033;-73
2023/06/03 06:59:33;;;;;;;5.40;3.05;;;;;;;22.65;46.18;102222.66;5027812;28;20372;-72
2023/06/03 07:01:58;;;;;;;13.00;3.00;;;;;;;23.21;45.47;102217.28;5021534;28;20038;-74
2023/06/03 07:04:24;;;;;;;5.45;2.28;;;;;;;23.36;43.94;102221.22;5030437;28;20086;-73
2023/06/03 07:06:50;;;;;;;7.50;2.92;;;;;;;22.71;42.17;102224.47;5032764;28;20496;-73
2023/06/03 07:09:15;;;;;;;3.95;2.60;;;;;;;21.97;44.01;102218.63;5027220;28;20026;-73
2023/06/03 07:11:46;;;;;;;6.03;3.13;;;;;;;22.09;44.45;102228.75;5028027;28;20087;-72
2023/06/03 07:14:13;;;;;;;6.45;2.80;;;;;;;21.97;43.84;102224.22;5031485;28;20064;-72
2023/06/03 07:16:41;;;;;;;6.70;2.80;;;;;;;21.97;44.67;102224.22;5032068;28;20037;-73
2023/06/03 07:19:06;;;;;;;6.57;3.08;;;;;;;22.86;44.83;102220.09;5038291;28;20029;-73
2023/06/03 07:21:33;;;;;;;5.25;2.33;;;;;;;23.01;42.60;102217.66;5032430;28;20060;-73
2023/06/03 07:23:59;;;;;;;3.63;2.50;;;;;;;23.18;42.92;102228.94;5028218;28;20032;-73
2023/06/03 07:26:25;;;;;;;5.68;2.80;;;;;;;23.24;43.74;102220.41;5038688;28;20563;-73
2023/06/03 07:28:51;;;;;;;9.15;2.65;;;;;;;22.41;43.10;102226.50;5039689;28;20030;-73
2023/06/03 07:31:16;;;;;;;6.20;2.90;;;;;;;22.48;43.44;102221.69;5030335;28;20051;-73
2023/06/03 07:33:53;;;;;;;7.20;2.37;;;;;;;23.01;43.55;102230.75;5029144;28;20421;-73
2023/06/03 07:36:20;;;;;;;12.77;2.58;;;;;;;23.14;42.13;102230.47;5028171;28;20025;-73
2023/06/03 07:38:56;;;;;;;4.78;2.20;;;;;;;23.06;41.53;102231.72;5039829;28;20025;-73
2023/06/03 07:41:35;;;;;;;5.43;2.00;;;;;;;23.06;41.28;102231.72;5029075;28;20396;-73
2023/06/03 07:44:05;;;;;;;5.85;2.63;;;;;;;22.90;42.83;102220.44;5059051;28;20029;-73
2023/06/03 07:46:38;;;;;;;11.55;2.85;;;;;;;22.38;42.14;102225.03;5024473;28;20025;-73
2023/06/03 07:49:08;;;;;;;7.70;2.00;;;;;;;22.39;42.99;102220.28;5039096;28;20046;-73
2023/06/03 07:51:34;;;;;;;10.27;2.72;;;;;;;21.84;42.00;102221.63;5032467;28;20025;-72
2023/06/03 07:53:59;;;;;;;10.33;2.00;;;;;;;21.80;41.88;102218.47;5071110;28;20048;-73
2023/06/03 07:56:26;;;;;;;4.57;2.00;;;;;;;21.75;42.51;102223.06;5031545;28;20029;-72
2023/06/03 07:58:52;;;;;;;2.50;1.95;;;;;;;21.49;41.71;102228.97;5034964;28;20021;-72
2023/06/03 08:01:18;;;;;;;6.53;2.20;;;;;;;21.36;43.12;102221.66;5026184;28;20523;-72
2023/06/03 08:03:43;;;;;;;8.55;2.70;;;;;;;21.72;43.03;102231.91;5033475;28;20033;-73
2023/06/03 08:06:09;;;;;;;3.17;1.80;;;;;;;21.90;41.81;102234.63;5033060;28;20515;-73
2023/06/03 08:08:34;;;;;;;3.90;2.60;;;;;;;21.50;41.17;102234.31;5039923;28;20473;-74
2023/06/03 08:11:01;;;;;;;8.02;3.30;;;;;;;22.20;43.74;102232.66;5039264;28;20104;-73
2023/06/03 08:13:26;;;;;;;3.97;2.22;;;;;;;21.39;40.47;102237.06;5033651;28;20095;-73
2023/06/03 08:15:51;;;;;;;5.13;2.17;;;;;;;21.12;40.77;102230.13;5045838;28;20036;-72
2023/06/03 08:18:47;;;;;;;9.63;2.30;;;;;;;21.48;42.09;102242.09;5035897;28;20315;-73
2023/06/03 08:21:13;;;;;;;7.35;2.00;;;;;;;21.55;42.16;102239.22;5037629;28;20064;-73
2023/06/03 08:23:39;;;;;;;5.60;2.05;;;;;;;21.70;41.40;102234.06;5039366;28;20444;-72
2023/06/03 08:26:05;;;;;;;5.70;2.17;;;;;;;21.88;41.94;102234.03;5041417;28;20033;-73
2023/06/03 08:28:30;;;;;;;4.35;1.75;;;;;;;21.50;37.76;102239.91;5040173;28;20112;-73
2023/06/03 08:30:56;;;;;;;6.47;2.03;;;;;;;21.45;39.16;102231.38;5038383;28;20056;-72
2023/06/03 08:33:22;;;;;;;7.47;1.87;;;;;;;21.85;39.23;102232.56;5031872;28;20095;-73
2023/06/03 08:35:47;;;;;;;2.97;2.10;;;;;;;21.72;37.51;102226.34;5042212;28;20386;-73
2023/06/03 08:38:16;;;;;;;11.83;1.90;;;;;;;21.86;39.01;102211.94;5039520;28;20112;-72
2023/06/03 08:40:50;;;;;;;12.65;2.10;;;;;;;21.65;36.53;102219.94;5026172;28;20083;-72
2023/06/03 08:43:17;;;;;;;7.63;2.25;;;;;;;21.11;36.69;102218.13;5030314;28;20049;-72
2023/06/03 08:46:12;;;;;;;3.35;1.70;;;;;;;21.61;36.41;102219.56;5031559;28;20087;-73
2023/06/03 08:49:00;;;;;;;7.07;1.88;;;;;;;21.92;37.35;102224.09;5038426;28;20028;-73
2023/06/03 08:51:26;;;;;;;;;;;;;;;21.93;35.38;102220.22;5074568;28;20123;-72
2023/06/03 08:53:52;;;;;;;4.60;1.73;;;;;;;21.71;35.04;102221.84;5039965;28;20008;-72
2023/06/03 08:56:20;;;;;;;;;;;;;;;22.25;37.71;102216.88;5043893;28;20034;-73
2023/06/03 08:58:54;;;;;;;6.82;1.60;;;;;;;22.23;35.78;102221.00;5036694;28;20357;-73
2023/06/03 09:01:28;;;;;;;4.38;1.48;;;;;;;22.37;36.10;102223.34;5067926;28;20029;-72
2023/06/03 09:03:53;;;;;;;7.13;1.67;;;;;;;22.55;36.14;102220.47;5036482;28;20030;-73
2023/06/03 09:06:20;;;;;;;5.93;1.40;;;;;;;22.40;34.34;102222.84;5039752;28;20113;-73
2023/06/03 09:08:47;;;;;;;;;;;;;;;22.51;34.85;102216.44;5037046;28;20032;-73
2023/06/03 09:11:14;;;;;;;11.90;1.50;;;;;;;22.56;34.88;102210.97;5042426;28;19916;-72
2023/06/03 09:13:42;;;;;;;7.45;1.88;;;;;;;22.35;34.73;102214.34;5041118;28;20034;-72
2023/06/03 09:16:08;;;;;;;5.50;1.40;;;;;;;22.40;33.60;102208.88;5039432;28;20163;-72
2023/06/03 09:18:34;;;;;;;4.05;1.35;;;;;;;22.56;34.35;102212.94;5034524;28;20025;-74
2023/06/03 09:21:00;;;;;;;7.57;1.83;;;;;;;22.50;34.26;102225.06;5039543;28;20044;-72
2023/06/03 09:23:27;;;;;;;6.22;1.55;;;;;;;22.54;34.17;102210.38;5031742;28;20278;-73
2023/06/03 09:25:53;;;;;;;6.43;1.70;;;;;;;22.52;33.85;102206.13;5042258;28;20047;-72
2023/06/03 09:28:18;;;;;;;8.47;1.47;;;;;;;22.90;35.30;102209.28;5039880;28;20476;-73
2023/06/03 09:30:44;;;;;;;5.77;1.53;;;;;;;22.82;34.08;102212.41;5039160;28;20025;-73
2023/06/03 09:33:09;;;;;;;6.90;1.70;;;;;;;22.94;33.09;102200.13;5042290;28;20033;-73
2023/06/03 09:35:35;;;;;;;6.63;1.60;;;;;;;22.98;33.67;102204.16;5039659;28;20489;-72
2023/06/03 09:38:04;;;;;;;8.57;1.60;;;;;;;22.86;32.49;102224.81;5033386;28;20104;-72
2023/06/03 09:40:31;;;;;;;6.28;1.80;;;;;;;22.66;33.65;102213.16;5033922;28;20025;-72
2023/06/03 09:42:57;;;;;;;11.68;1.65;;;;;;;23.19;33.79;102213.84;5038033;28;20033;-72
2023/06/03 09:45:31;;;;;;;2.95;1.45;;;;;;;22.64;33.77;102215.38;5039427;28;20029;-72
2023/06/03 09:47:57;;;;;;;5.65;2.05;;;;;;;22.37;33.05;102219.69;5038215;28;20048;-72
2023/06/03 09:50:24;;;;;;;;;;;;;;;22.95;33.55;102217.78;5040256;28;20115;-72
2023/06/03 09:52:49;;;;;;;4.07;1.60;;;;;;;22.70;33.12;102214.38;5036104;28;19913;-71
2023/06/03 09:55:17;;;;;;;6.22;1.77;;;;;;;23.08;34.13;102217.50;5041133;28;20388;-72
2023/06/03 09:58:01;;;;;;;6.72;1.58;;;;;;;23.11;32.90;102217.00;5040998;28;20029;-72
2023/06/03 10:00:26;;;;;;;4.82;1.90;;;;;;;22.79;32.76;102210.97;5036856;28;20033;-71
2023/06/03 10:03:06;;;;;;;4.83;1.40;;;;;;;23.26;33.24;102214.59;5037091;28;20149;-71
2023/06/03 10:05:33;;;;;;;4.00;1.67;;;;;;;23.04;33.14;102211.53;5038324;28;20025;-71
2023/06/03 10:08:00;;;;;;;2.50;1.85;;;;;;;23.36;33.30;102203.59;5032448;28;20041;-72
2023/06/03 10:10:26;;;;;;;6.50;1.90;;;;;;;23.51;33.29;102213.16;5038470;28;20032;-72
2023/06/03 10:12:51;;;;;;;5.37;1.70;;;;;;;23.33;32.45;102206.88;5029580;28;20033;-70
2023/06/03 10:15:38;;;;;;;6.33;1.73;;;;;;;23.25;31.50;102212.84;5039099;28;20059;-72
2023/06/03 10:18:05;;;;;;;3.40;1.55;;;;;;;23.11;31.62;102223.44;5031901;28;20033;-72
2023/06/03 10:20:38;;;;;;;3.40;1.75;;;;;;;22.89;31.87;102201.97;5035046;28;20039;-72
2023/06/03 10:23:06;;;;;;;7.47;1.92;;;;;;;23.49;32.52;102204.16;5032753;28;20556;-72
2023/06/03 10:25:46;;;;;;;2.65;1.60;;;;;;;23.10;32.68;102209.72;5041012;28;20392;-72
2023/06/03 10:28:13;;;;;;;5.18;1.50;;;;;;;23.35;32.04;102205.53;5037082;28;20021;-71
2023/06/03 10:30:39;;;;;;;5.75;1.70;;;;;;;23.64;31.57;102215.63;5034793;28;20052;-72
2023/06/03 10:33:06;;;;;;;;;;;;;;;23.77;31.04;102208.88;5035127;28;20024;-72
2023/06/03 10:35:32;;;;;;;5.38;1.60;;;;;;;23.60;30.91;102211.66;5034514;28;19935;-72
2023/06/03 10:38:03;;;;;;;5.90;1.73;;;;;;;23.86;29.73;102210.19;5030253;28;20038;-71
2023/06/03 10:40:29;;;;;;;7.45;1.70;;;;;;;23.93;29.92;102213.69;5035852;28;20037;-71
2023/06/03 10:42:56;;;;;;;2.47;1.25;;;;;;;24.06;31.34;102214.22;5037987;28;20044;-71
2023/06/03 10:45:22;;;;;;;5.40;1.83;;;;;;;24.23;29.68;102211.47;5039014;28;20025;-72
2023/06/03 10:47:50;;;;;;;4.95;1.90;;;;;;;24.11;30.00;102211.53;5032237;28;20029;-72
2023/06/03 10:50:38;;;;;;;3.90;1.40;;;;;;;24.19;30.61;102211.13;5036427;28;20148;-72
2023/06/03 10:53:27;;;;;;;10.13;1.30;;;;;;;24.29;29.48;102216.91;5036163;28;20041;-72
2023/06/03 10:56:04;;;;;;;5.47;1.27;;;;;;;24.45;29.97;102215.19;5034727;28;20036;-72
2023/06/03 10:58:31;;;;;;;3.15;1.35;;;;;;;24.40;29.62;102201.09;5032125;28;20037;-72
2023/06/03 11:00:58;;;;;;;;;;;;;;;24.30;30.35;102198.13;5033973;28;20068;-73
2023/06/03 11:03:53;;;;;;;6.15;1.63;;;;;;;24.38;30.79;102208.91;5033287;28;19924;-73
2023/06/03 11:06:21;;;;;;;2.30;1.20;;;;;;;24.32;29.96;102207.13;5030191;28;20508;-73
2023/06/03 11:09:09;;;;;;;9.63;1.73;;;;;;;24.16;28.78;102210.78;5036550;28;20036;-73
2023/06/03 11:11:40;;;;;;;5.15;1.48;;;;;;;24.20;28.96;102211.94;5039126;28;20053;-73
2023/06/03 11:14:40;;;;;;;5.22;1.25;;;;;;;24.82;30.00;102199.53;5041843;28;20566;-73
2023/06/03 11:17:06;;;;;;;4.22;1.50;;;;;;;24.44;28.48;102213.50;5037027;28;20455;-71
2023/06/03 11:19:36;;;;;;;4.55;1.50;;;;;;;24.14;28.52;102224.16;5031186;28;20033;-72
2023/06/03 11:22:09;;;;;;;6.07;1.75;;;;;;;24.15;27.87;102211.84;5041337;28;20037;-73
2023/06/03 11:24:37;;;;;;;2.92;1.30;;;;;;;23.92;27.31;102215.66;5036162;28;20024;-73
2023/06/03 11:27:24;;;;;;;2.67;1.13;;;;;;;24.11;27.58;102207.88;5040932;28;20022;-74